createdAt,value
2019-03-08T00:00:33.757Z,74.60
2019-03-08T00:03:02.607Z,75.20
2019-03-08T00:05:31.207Z,75.50
2019-03-08T00:07:59.730Z,77.20
2019-03-08T00:10:28.446Z,78.10
2019-03-08T00:12:57.047Z,78.70
2019-03-08T00:15:26.454Z,79.30
2019-03-08T00:17:55.243Z,79.70
2019-03-08T00:20:23.772Z,80.30
2019-03-08T00:22:52.297Z,80.60
2019-03-08T00:25:20.942Z,80.60
2019-03-08T00:27:49.614Z,80.40
2019-03-08T00:30:18.283Z,80.50
2019-03-08T00:32:46.846Z,79.70
2019-03-08T00:35:15.460Z,79.90
2019-03-08T00:37:43.989Z,79.70
2019-03-08T00:40:14.029Z,79.70
2019-03-08T00:42:42.686Z,79.80
2019-03-08T00:45:18.014Z,79.70
2019-03-08T00:47:46.606Z,80.00
2019-03-08T00:50:15.213Z,80.00
2019-03-08T00:52:43.765Z,79.90
2019-03-08T00:55:13.539Z,80.00
2019-03-08T00:57:42.640Z,80.20
2019-03-08T01:00:19.939Z,80.30
2019-03-08T01:02:48.604Z,80.50
2019-03-08T01:05:17.571Z,80.30
2019-03-08T01:07:46.268Z,80.50
2019-03-08T01:10:20.413Z,80.80
2019-03-08T01:12:49.116Z,80.10
2019-03-08T01:15:18.222Z,79.90
2019-03-08T01:17:47.655Z,79.90
2019-03-08T01:20:18.130Z,79.50
2019-03-08T01:22:46.860Z,79.30
2019-03-08T01:25:15.622Z,79.50
2019-03-08T01:28:10.204Z,79.30
2019-03-08T01:30:40.259Z,78.70
2019-03-08T01:33:08.958Z,78.80
2019-03-08T01:35:37.752Z,78.50
2019-03-08T01:38:06.414Z,78.20
2019-03-08T01:40:35.006Z,78.10
2019-03-08T01:43:04.011Z,77.70
2019-03-08T01:45:32.602Z,77.50
2019-03-08T01:48:01.377Z,77.60
2019-03-08T01:50:30.090Z,77.00
2019-03-08T01:52:58.688Z,76.90
2019-03-08T01:55:27.286Z,76.40
2019-03-08T01:57:55.916Z,75.80
2019-03-08T02:00:24.588Z,76.00
2019-03-08T02:02:53.259Z,76.00
2019-03-08T02:05:22.378Z,76.00
2019-03-08T02:07:51.039Z,75.70
2019-03-08T02:10:19.711Z,76.20
2019-03-08T02:12:48.263Z,76.30
2019-03-08T02:15:18.233Z,75.80
2019-03-08T02:17:46.763Z,75.60
2019-03-08T02:20:18.749Z,75.70
2019-03-08T02:22:47.343Z,75.40
2019-03-08T02:25:16.006Z,75.70
2019-03-08T02:27:44.986Z,75.80
2019-03-08T02:30:15.534Z,75.50
2019-03-08T02:32:44.388Z,75.70
2019-03-08T02:35:13.687Z,75.70
2019-03-08T02:37:42.292Z,76.10
2019-03-08T02:40:30.697Z,75.50
2019-03-08T02:42:59.867Z,75.80
2019-03-08T02:45:28.455Z,75.90
2019-03-08T02:47:57.089Z,76.00
2019-03-08T02:50:25.852Z,76.40
2019-03-08T02:52:54.366Z,76.30
2019-03-08T02:55:23.015Z,76.40
2019-03-08T02:57:51.980Z,76.60
2019-03-08T03:00:20.655Z,76.50
2019-03-08T03:02:49.320Z,77.60
2019-03-08T03:05:17.983Z,77.40
2019-03-08T03:07:46.658Z,77.30
2019-03-08T03:10:15.282Z,77.40
2019-03-08T03:12:43.815Z,77.30
2019-03-08T03:15:14.293Z,77.60
2019-03-08T03:17:42.916Z,77.60
2019-03-08T03:20:13.576Z,77.70
2019-03-08T03:22:42.159Z,77.70
2019-03-08T03:25:15.554Z,78.10
2019-03-08T03:27:44.159Z,78.50
2019-03-08T03:30:15.698Z,78.20
2019-03-08T03:32:44.336Z,78.50
2019-03-08T03:35:12.968Z,78.00
2019-03-08T03:37:41.535Z,78.10
2019-03-08T03:40:12.499Z,77.90
2019-03-08T03:42:41.096Z,77.90
2019-03-08T03:45:12.169Z,78.10
2019-03-08T03:47:40.876Z,78.00
2019-03-08T03:50:11.345Z,78.30
2019-03-08T03:52:40.145Z,78.80
2019-03-08T03:55:11.446Z,78.30
2019-03-08T03:57:39.985Z,78.50
2019-03-08T04:00:14.333Z,78.50
2019-03-08T04:02:42.973Z,78.80
2019-03-08T04:05:11.931Z,79.10
2019-03-08T04:07:40.527Z,78.80
2019-03-08T04:10:12.065Z,78.80
2019-03-08T04:12:40.722Z,79.10
2019-03-08T04:15:12.260Z,79.80
2019-03-08T04:17:40.823Z,80.00
2019-03-08T04:20:12.089Z,80.00
2019-03-08T04:22:40.686Z,80.40
2019-03-08T04:25:10.977Z,80.80
2019-03-08T04:27:39.527Z,81.00
2019-03-08T04:30:11.195Z,81.20
2019-03-08T04:32:39.863Z,81.30
2019-03-08T04:35:08.478Z,82.30
2019-03-08T04:37:36.998Z,81.60
2019-03-08T04:40:08.618Z,81.60
2019-03-08T04:42:37.139Z,81.70
2019-03-08T04:45:08.543Z,81.60
2019-03-08T04:47:37.093Z,81.60
2019-03-08T04:50:07.869Z,81.60
2019-03-08T04:52:36.411Z,81.50
2019-03-08T04:55:08.307Z,81.40
2019-03-08T04:57:36.916Z,81.40
2019-03-08T05:00:09.231Z,81.40
2019-03-08T05:02:37.787Z,81.10
2019-03-08T05:05:06.769Z,81.40
2019-03-08T05:07:35.541Z,81.40
2019-03-08T05:10:06.804Z,81.30
2019-03-08T05:12:35.256Z,81.40
2019-03-08T05:15:04.823Z,81.30
2019-03-08T05:17:33.332Z,81.40
2019-03-08T05:20:01.924Z,81.00
2019-03-08T05:22:30.454Z,80.80
2019-03-08T05:24:59.103Z,80.80
2019-03-08T05:27:28.358Z,80.70
2019-03-08T05:29:56.890Z,80.70
2019-03-08T05:32:25.458Z,80.70
2019-03-08T05:34:53.984Z,80.70
2019-03-08T05:37:22.511Z,80.40
2019-03-08T05:39:51.082Z,80.70
2019-03-08T05:42:19.612Z,80.60
2019-03-08T05:44:48.143Z,80.50
2019-03-08T05:47:16.710Z,80.10
2019-03-08T05:49:45.302Z,81.00
2019-03-08T05:52:13.842Z,80.10
2019-03-08T05:54:42.404Z,79.40
2019-03-08T05:57:10.926Z,79.00
2019-03-08T05:59:39.465Z,78.90
2019-03-08T06:02:08.044Z,78.00
2019-03-08T06:04:36.584Z,77.60
2019-03-08T06:07:05.115Z,77.40
2019-03-08T06:09:33.875Z,76.00
2019-03-08T06:12:02.376Z,76.00
2019-03-08T06:14:31.219Z,74.20
2019-03-08T06:16:59.780Z,73.10
2019-03-08T06:19:28.313Z,72.60
2019-03-08T06:21:56.912Z,72.30
2019-03-08T06:24:25.665Z,71.70
2019-03-08T06:26:54.280Z,71.20
2019-03-08T06:29:23.836Z,71.30
2019-03-08T06:31:52.406Z,71.60
2019-03-08T06:34:20.940Z,71.70
2019-03-08T06:36:49.472Z,72.20
2019-03-08T06:39:18.051Z,72.10
2019-03-08T06:41:46.639Z,73.00
2019-03-08T06:44:15.095Z,72.90
2019-03-08T06:46:43.953Z,72.70
2019-03-08T06:49:12.704Z,72.60
2019-03-08T06:51:41.412Z,72.30
2019-03-08T06:54:10.040Z,71.30
2019-03-08T06:56:38.578Z,71.20
2019-03-08T06:59:11.224Z,71.50
2019-03-08T07:01:45.693Z,71.10
2019-03-08T07:04:14.279Z,70.40
2019-03-08T07:06:42.912Z,70.20
2019-03-08T07:09:19.471Z,70.40
2019-03-08T07:11:48.284Z,70.90
2019-03-08T07:14:16.820Z,71.10
2019-03-08T07:16:45.701Z,70.90
2019-03-08T07:19:14.213Z,70.80
2019-03-08T07:21:44.375Z,70.60
2019-03-08T07:24:14.662Z,70.00
2019-03-08T07:26:45.192Z,69.90
2019-03-08T07:29:21.579Z,69.00
2019-03-08T07:32:00.736Z,68.60
2019-03-08T07:34:33.785Z,67.60
2019-03-08T07:37:13.057Z,67.40
2019-03-08T07:39:45.819Z,66.90
2019-03-08T07:42:21.692Z,65.10
2019-03-08T07:45:07.981Z,65.10
2019-03-08T07:47:56.331Z,65.00
2019-03-08T07:50:32.708Z,64.30
2019-03-08T07:53:08.983Z,63.60
2019-03-08T07:55:58.206Z,63.50
2019-03-08T07:58:33.925Z,62.70
2019-03-08T08:01:12.122Z,62.70
2019-03-08T08:04:07.644Z,62.30
2019-03-08T08:06:52.955Z,62.50
2019-03-08T08:09:28.758Z,62.60
2019-03-08T08:12:04.766Z,62.60
2019-03-08T08:14:51.470Z,62.70
2019-03-08T08:17:21.673Z,63.30
2019-03-08T08:20:16.167Z,62.50
2019-03-08T08:22:42.927Z,62.00
2019-03-08T08:25:47.532Z,61.00
2019-03-08T08:28:17.903Z,60.80
2019-03-08T08:30:57.400Z,59.80
2019-03-08T08:33:39.619Z,59.70
2019-03-08T08:36:09.800Z,58.20
2019-03-08T08:38:42.940Z,57.30
2019-03-08T08:41:29.584Z,57.00
2019-03-08T08:43:59.758Z,57.90
2019-03-08T08:46:30.151Z,56.20
2019-03-08T08:49:12.876Z,54.90
2019-03-08T08:51:55.075Z,55.80
2019-03-08T08:54:41.324Z,55.70
2019-03-08T08:57:17.700Z,56.20
2019-03-08T08:59:50.835Z,56.30
2019-03-08T09:02:20.935Z,56.50
2019-03-08T09:04:53.561Z,54.80
2019-03-08T09:07:26.611Z,55.60
2019-03-08T09:09:59.551Z,55.50
2019-03-08T09:12:47.671Z,54.90
2019-03-08T09:15:23.972Z,53.00
2019-03-08T09:18:09.648Z,49.80
2019-03-08T09:20:56.422Z,49.70
2019-03-08T09:23:32.612Z,49.50
2019-03-08T09:26:02.778Z,50.20
2019-03-08T09:28:36.046Z,50.80
2019-03-08T09:31:06.341Z,49.70
2019-03-08T09:33:36.897Z,50.30
2019-03-08T09:36:12.967Z,49.60
2019-03-08T09:38:43.162Z,49.40
2019-03-08T09:41:22.454Z,47.10
2019-03-08T09:44:04.214Z,47.00
2019-03-08T09:46:34.503Z,48.20
2019-03-08T09:49:16.875Z,49.30
2019-03-08T09:51:47.226Z,50.60
2019-03-08T09:54:18.304Z,51.00
2019-03-08T09:56:48.583Z,51.20
2019-03-08T09:59:24.248Z,53.10
2019-03-08T10:01:57.104Z,54.20
2019-03-08T10:04:27.547Z,54.50
2019-03-08T10:07:00.442Z,52.80
2019-03-08T10:09:30.670Z,52.40
2019-03-08T10:12:00.874Z,51.60
2019-03-08T10:14:31.098Z,50.40
2019-03-08T10:17:01.463Z,48.20
2019-03-08T10:19:48.028Z,47.50
2019-03-08T10:22:18.207Z,46.40
2019-03-08T10:25:04.903Z,47.10
2019-03-08T10:27:53.689Z,45.90
2019-03-08T10:30:40.191Z,45.50
2019-03-08T10:33:25.479Z,45.60
2019-03-08T10:36:11.169Z,46.70
2019-03-08T10:38:41.605Z,47.60
2019-03-08T10:41:18.122Z,46.80
2019-03-08T10:43:54.135Z,46.20
2019-03-08T10:46:24.407Z,46.00
2019-03-08T10:49:11.059Z,47.30
2019-03-08T10:51:44.009Z,47.10
2019-03-08T10:54:29.446Z,48.40
2019-03-08T10:57:02.995Z,46.40
2019-03-08T10:59:45.484Z,46.60
2019-03-08T11:02:21.207Z,46.20
2019-03-08T11:05:06.848Z,44.80
2019-03-08T11:07:39.478Z,45.80
2019-03-08T11:10:12.863Z,45.40
2019-03-08T11:12:59.490Z,43.70
2019-03-08T11:15:35.695Z,43.90
2019-03-08T11:18:08.916Z,43.50
2019-03-08T11:20:46.432Z,44.20
2019-03-08T11:23:19.879Z,45.20
2019-03-08T11:26:06.540Z,43.10
2019-03-08T11:28:45.502Z,43.90
2019-03-08T11:31:31.897Z,44.50
2019-03-08T11:34:02.137Z,45.90
2019-03-08T11:36:35.022Z,46.30
2019-03-08T11:39:12.586Z,46.50
2019-03-08T11:41:42.844Z,46.90
2019-03-08T11:44:13.016Z,46.80
2019-03-08T11:46:43.229Z,45.40
2019-03-08T11:49:19.173Z,45.10
2019-03-08T11:51:55.581Z,45.10
2019-03-08T11:54:25.757Z,45.30
2019-03-08T11:57:11.263Z,44.90
2019-03-08T11:59:41.392Z,46.10
2019-03-08T12:02:20.530Z,45.80
2019-03-08T12:05:05.783Z,46.70
2019-03-08T12:07:35.983Z,46.30
2019-03-08T12:10:25.093Z,46.10
2019-03-08T12:12:55.295Z,46.90
2019-03-08T12:15:41.454Z,46.40
2019-03-08T12:18:27.792Z,44.70
2019-03-08T12:21:06.779Z,45.80
2019-03-08T12:23:52.263Z,45.20
2019-03-08T12:26:22.581Z,44.60
2019-03-08T12:28:52.719Z,42.60
2019-03-08T12:31:41.096Z,41.50
2019-03-08T12:34:26.215Z,41.40
2019-03-08T12:36:59.199Z,41.20
2019-03-08T12:39:29.807Z,41.10
2019-03-08T12:42:06.196Z,42.20
2019-03-08T12:44:36.425Z,43.20
2019-03-08T12:47:22.737Z,42.70
2019-03-08T12:50:09.240Z,40.50
2019-03-08T12:52:45.201Z,40.40
2019-03-08T12:55:30.868Z,41.00
2019-03-08T12:58:01.181Z,40.00
2019-03-08T13:00:49.425Z,37.30
2019-03-08T13:03:36.006Z,37.70
2019-03-08T13:06:12.058Z,37.30
2019-03-08T13:08:45.183Z,37.10
2019-03-08T13:11:13.650Z,36.50
2019-03-08T13:13:42.167Z,37.20
2019-03-08T13:16:11.044Z,37.00
2019-03-08T13:18:39.650Z,36.00
2019-03-08T13:21:08.195Z,34.10
2019-03-08T13:23:37.002Z,35.30
2019-03-08T13:26:05.686Z,36.30
2019-03-08T13:28:34.297Z,36.50
2019-03-08T13:31:03.065Z,36.20
2019-03-08T13:33:31.678Z,36.70
2019-03-08T13:36:00.248Z,37.20
2019-03-08T13:38:28.941Z,38.00
2019-03-08T13:40:59.059Z,38.70
2019-03-08T13:43:27.760Z,38.70
2019-03-08T13:45:56.686Z,38.80
2019-03-08T13:48:25.211Z,38.80
2019-03-08T13:50:53.749Z,39.20
2019-03-08T13:53:22.383Z,40.40
2019-03-08T13:55:50.987Z,38.30
2019-03-08T13:58:19.518Z,38.60
2019-03-08T14:00:48.301Z,38.50
2019-03-08T14:03:16.870Z,38.70
2019-03-08T14:05:45.421Z,39.50
2019-03-08T14:08:13.983Z,38.60
2019-03-08T14:10:42.458Z,39.10
2019-03-08T14:13:11.072Z,39.30
2019-03-08T14:15:39.828Z,39.00
2019-03-08T14:18:08.363Z,39.20
2019-03-08T14:20:37.040Z,36.40
2019-03-08T14:23:05.757Z,35.80
2019-03-08T14:25:34.283Z,37.20
2019-03-08T14:28:02.891Z,37.10
2019-03-08T14:30:45.228Z,36.70
2019-03-08T14:33:16.841Z,37.50
2019-03-08T14:35:45.471Z,39.90
2019-03-08T14:38:14.026Z,42.00
2019-03-08T14:40:44.581Z,43.30
2019-03-08T14:43:31.334Z,44.60
2019-03-08T14:48:54.910Z,45.60
2019-03-08T14:51:26.317Z,45.90
2019-03-08T14:53:54.853Z,45.50
2019-03-08T14:56:23.491Z,45.90
2019-03-08T14:58:51.953Z,46.00
2019-03-08T15:01:20.557Z,45.70
2019-03-08T15:03:49.123Z,45.80
2019-03-08T15:06:17.657Z,44.80
2019-03-08T15:08:46.407Z,44.70
2019-03-08T15:11:15.041Z,45.40
2019-03-08T15:13:43.815Z,45.60
2019-03-08T15:16:12.411Z,46.20
2019-03-08T15:18:40.988Z,46.60
2019-03-08T15:21:09.585Z,46.70
2019-03-08T15:23:38.247Z,45.20
2019-03-08T15:26:06.946Z,46.00
2019-03-08T15:28:35.480Z,47.10
2019-03-08T15:31:04.156Z,47.60
2019-03-08T15:33:32.735Z,46.70
2019-03-08T15:36:01.341Z,46.60
2019-03-08T15:38:30.650Z,46.90
2019-03-08T15:40:59.525Z,47.10
2019-03-08T15:43:28.214Z,46.30
2019-03-08T15:45:57.068Z,46.30
2019-03-08T15:48:25.711Z,45.90
2019-03-08T15:50:54.259Z,45.90
2019-03-08T15:53:22.789Z,45.90
2019-03-08T15:55:53.175Z,46.10
2019-03-08T15:58:21.807Z,46.20
2019-03-08T16:00:50.365Z,46.00
2019-03-08T16:03:18.991Z,46.20
2019-03-08T16:05:47.594Z,46.10
2019-03-08T16:08:16.191Z,45.90
2019-03-08T16:10:44.687Z,46.50
2019-03-08T16:13:13.366Z,46.30
2019-03-08T16:15:41.939Z,46.50
2019-03-08T16:18:10.471Z,46.60
2019-03-08T16:20:39.376Z,46.60
2019-03-08T16:23:08.504Z,46.60
2019-03-08T16:25:41.044Z,47.30
2019-03-08T16:28:07.344Z,47.20
2019-03-08T16:30:39.739Z,47.40
2019-03-08T16:33:31.814Z,48.00
2019-03-08T16:36:10.985Z,48.50
2019-03-08T16:38:43.812Z,48.90
2019-03-08T16:41:30.073Z,48.90
2019-03-08T16:44:06.196Z,49.10
2019-03-08T16:46:42.229Z,49.40
2019-03-08T16:49:24.208Z,49.70
2019-03-08T16:52:10.490Z,50.10
2019-03-08T16:54:56.767Z,50.40
2019-03-08T16:57:26.890Z,50.40
2019-03-08T17:00:00.031Z,50.60
2019-03-08T17:02:36.104Z,50.90
2019-03-08T17:05:10.238Z,51.10
2019-03-08T17:07:48.983Z,51.40
2019-03-08T17:10:19.148Z,51.70
2019-03-08T17:12:55.171Z,51.90
2019-03-08T17:15:25.355Z,51.90
2019-03-08T17:18:04.516Z,52.20
2019-03-08T17:20:50.943Z,52.30
2019-03-08T17:23:37.427Z,52.50
2019-03-08T17:26:13.337Z,52.60
2019-03-08T17:29:00.043Z,53.40
2019-03-08T17:31:30.299Z,53.20
2019-03-08T17:34:09.733Z,53.10
2019-03-08T17:36:49.121Z,53.10
2019-03-08T17:39:19.417Z,52.90
2019-03-08T17:41:55.344Z,52.80
2019-03-08T17:44:31.944Z,53.10
2019-03-08T17:47:18.245Z,52.50
2019-03-08T17:50:03.548Z,52.60
2019-03-08T17:52:40.144Z,52.80
2019-03-08T17:55:22.711Z,52.80
2019-03-08T17:57:52.892Z,52.70
2019-03-08T18:00:23.132Z,52.90
2019-03-08T18:03:09.654Z,53.20
2019-03-08T18:05:39.901Z,53.20
2019-03-08T18:08:28.106Z,53.30
2019-03-08T18:11:03.774Z,53.70
2019-03-08T18:13:33.919Z,53.70
2019-03-08T18:16:04.266Z,54.10
2019-03-08T18:18:34.527Z,54.00
2019-03-08T18:21:10.792Z,54.30
2019-03-08T18:23:40.977Z,54.30
2019-03-08T18:26:11.095Z,54.60
2019-03-08T18:28:43.887Z,54.90
2019-03-08T18:31:16.836Z,54.40
2019-03-08T18:33:46.978Z,54.80
2019-03-08T18:36:17.257Z,54.60
2019-03-08T18:38:47.893Z,54.70
2019-03-08T18:41:34.266Z,54.60
2019-03-08T18:44:07.163Z,55.00
2019-03-08T18:46:49.348Z,54.70
2019-03-08T18:49:28.478Z,54.90
2019-03-08T18:52:02.112Z,54.40
2019-03-08T18:54:32.578Z,54.80
2019-03-08T18:57:02.820Z,54.10
2019-03-08T18:59:35.843Z,54.20
2019-03-08T19:02:06.093Z,54.30
2019-03-08T19:04:36.263Z,54.30
2019-03-08T19:07:36.687Z,53.90
2019-03-08T19:10:10.100Z,53.60
2019-03-08T19:12:40.239Z,53.90
2019-03-08T19:15:15.175Z,53.30
2019-03-08T19:17:51.744Z,53.00
2019-03-08T19:20:22.052Z,53.40
2019-03-08T19:23:08.811Z,53.20
2019-03-08T19:25:50.885Z,53.10
2019-03-08T19:28:27.282Z,52.80
2019-03-08T19:31:00.239Z,53.00
2019-03-08T19:33:30.404Z,53.20
2019-03-08T19:36:06.463Z,52.90
2019-03-08T19:38:39.944Z,53.50
2019-03-08T19:41:48.016Z,53.00
2019-03-08T19:44:34.788Z,53.10
2019-03-08T19:47:05.067Z,53.40
2019-03-08T19:49:38.300Z,53.70
2019-03-08T19:52:08.524Z,53.90
2019-03-08T19:54:51.184Z,54.70
2019-03-08T19:57:36.252Z,55.50
2019-03-08T20:00:18.366Z,57.00
2019-03-08T20:02:48.556Z,60.10
2019-03-08T20:05:34.186Z,62.60
2019-03-08T20:08:22.356Z,64.50
2019-03-08T20:11:09.167Z,66.30
2019-03-08T20:13:39.340Z,67.60
2019-03-08T20:16:09.708Z,69.30
2019-03-08T20:21:27.695Z,71.50
2019-03-08T20:23:57.886Z,72.70
2019-03-08T20:26:28.526Z,73.40
2019-03-08T20:29:07.882Z,74.00
2019-03-08T20:31:38.040Z,74.20
2019-03-08T20:34:17.393Z,74.40
2019-03-08T20:36:56.686Z,75.60
2019-03-08T20:39:34.373Z,75.00
2019-03-08T20:42:07.543Z,75.30
2019-03-08T20:44:46.388Z,75.30
2019-03-08T20:47:22.720Z,75.50
2019-03-08T20:49:51.296Z,75.50
2019-03-08T20:52:20.123Z,75.70
2019-03-08T20:54:48.792Z,75.90
2019-03-08T20:57:17.506Z,76.20
2019-03-08T20:59:46.075Z,76.30
2019-03-08T21:02:14.770Z,76.40
2019-03-08T21:04:43.403Z,76.30
2019-03-08T21:07:31.301Z,76.20
2019-03-08T21:09:59.862Z,76.30
2019-03-08T21:12:28.493Z,76.50
2019-03-08T21:14:57.062Z,76.10
2019-03-08T21:17:25.562Z,75.90
2019-03-08T21:19:54.019Z,76.20
2019-03-08T21:22:41.864Z,76.30
2019-03-08T21:25:14.846Z,76.20
2019-03-08T21:27:43.377Z,76.20
2019-03-08T21:30:17.822Z,76.30
2019-03-08T21:32:46.492Z,76.30
2019-03-08T21:35:15.192Z,76.40
2019-03-08T21:37:44.124Z,76.50
2019-03-08T21:40:13.615Z,76.50
2019-03-08T21:42:42.216Z,76.50
2019-03-08T21:45:15.691Z,76.80
2019-03-08T21:47:44.368Z,77.20
2019-03-08T21:50:17.399Z,77.40
2019-03-08T21:52:45.957Z,77.70
2019-03-08T21:55:14.560Z,77.60
2019-03-08T21:57:43.228Z,78.00
2019-03-08T22:00:23.540Z,78.00
2019-03-08T22:02:52.815Z,78.10
2019-03-08T22:05:23.160Z,78.30
2019-03-08T22:07:51.724Z,78.50
2019-03-08T22:10:21.979Z,78.80
2019-03-08T22:12:50.431Z,79.20
2019-03-08T22:15:19.153Z,78.60
2019-03-08T22:17:47.685Z,78.60
2019-03-08T22:20:16.283Z,78.60
2019-03-08T22:22:44.847Z,78.30
2019-03-08T22:25:13.665Z,77.70
2019-03-08T22:27:42.413Z,77.30
2019-03-08T22:30:19.102Z,77.30
2019-03-08T22:32:47.629Z,77.30
2019-03-08T22:35:16.079Z,77.30
2019-03-08T22:37:44.840Z,77.50
2019-03-08T22:40:13.452Z,77.50
2019-03-08T22:42:41.996Z,77.50
2019-03-08T22:45:12.492Z,77.60
2019-03-08T22:47:41.091Z,77.40
2019-03-08T22:50:14.664Z,77.30
2019-03-08T22:52:43.286Z,77.70
2019-03-08T22:55:13.779Z,77.90
2019-03-08T22:57:42.327Z,77.70
2019-03-08T23:00:27.354Z,77.60
2019-03-08T23:02:55.893Z,77.00
2019-03-08T23:05:25.107Z,77.40
2019-03-08T23:07:54.031Z,77.00
2019-03-08T23:10:22.699Z,76.60
2019-03-08T23:12:51.154Z,76.40
2019-03-08T23:15:20.049Z,76.30
2019-03-08T23:17:48.574Z,75.90
2019-03-08T23:20:17.099Z,75.70
2019-03-08T23:22:45.665Z,75.90
2019-03-08T23:25:14.210Z,75.80
2019-03-08T23:27:47.344Z,76.00
2019-03-08T23:30:20.189Z,75.40
2019-03-08T23:32:48.787Z,75.40
2019-03-08T23:35:17.382Z,75.30
2019-03-08T23:37:45.871Z,75.20
2019-03-08T23:40:33.955Z,75.80
2019-03-08T23:43:02.519Z,75.80
2019-03-08T23:45:30.989Z,75.70
2019-03-08T23:48:00.495Z,75.80
2019-03-08T23:50:29.060Z,76.00
2019-03-08T23:52:57.640Z,76.70
2019-03-08T23:55:26.211Z,77.10
2019-03-08T23:57:54.776Z,77.60
